Time,TemperatureF,DewpointF,PressureIn,WindDirection,WindDirectionDegrees,WindSpeedMPH,WindSpeedGustMPH,Humidity,HourlyPrecipIn,Conditions,Clouds,dailyrainin,SoftwareType,DateUTC
2013-11-20 00:13:00,48.4,30.0,29.45,NW,306,0.0,-999.0,50,-99.99,,,0.00,weatherlink.com 1.10,2013-11-20 07:13:00,
2013-11-20 00:28:00,47.7,31.0,29.47,West,264,0.0,-999.0,52,-99.99,,,0.00,weatherlink.com 1.10,2013-11-20 07:28:00,
2013-11-20 00:43:00,47.9,30.0,29.46,WNW,283,0.0,-999.0,50,-99.99,,,0.00,weatherlink.com 1.10,2013-11-20 07:43:00,
2013-11-20 00:58:00,48.1,31.0,29.47,SSE,155,0.0,-999.0,51,-99.99,,,0.00,weatherlink.com 1.10,2013-11-20 07:58:00,
2013-11-20 01:13:00,47.8,31.0,29.47,SSE,155,2.0,-999.0,52,-99.99,,,0.00,weatherlink.com 1.10,2013-11-20 08:13:00,
2013-11-20 01:28:00,47.5,30.0,29.47,South,180,4.0,-999.0,51,-99.99,,,0.00,weatherlink.com 1.10,2013-11-20 08:28:00,
2013-11-20 01:43:00,47.4,28.0,29.45,South,184,4.0,-999.0,48,-99.99,,,0.00,weatherlink.com 1.10,2013-11-20 08:43:00,
2013-11-20 01:58:00,47.7,29.0,29.45,SSE,164,0.0,-999.0,49,-99.99,,,0.00,weatherlink.com 1.10,2013-11-20 08:58:00,
2013-11-20 02:13:00,48.6,28.0,29.45,SSE,164,0.0,-999.0,45,-99.99,,,0.00,weatherlink.com 1.10,2013-11-20 09:13:00,
2013-11-20 02:28:00,49.0,28.0,29.44,WNW,290,2.0,-999.0,45,-99.99,,,0.00,weatherlink.com 1.10,2013-11-20 09:28:00,
2013-11-20 02:43:00,49.7,28.0,29.43,West,279,0.0,-999.0,44,-99.99,,,0.00,weatherlink.com 1.10,2013-11-20 09:43:00,
2013-11-20 02:58:00,48.7,29.0,29.43,WNW,292,1.0,-999.0,46,-99.99,,,0.00,weatherlink.com 1.10,2013-11-20 09:58:00,
2013-11-20 03:13:00,47.9,28.0,29.44,WNW,291,1.0,-999.0,47,-99.99,,,0.00,weatherlink.com 1.10,2013-11-20 10:13:00,
2013-11-20 03:28:00,47.5,28.0,29.44,WNW,302,4.0,-999.0,48,-99.99,,,0.00,weatherlink.com 1.10,2013-11-20 10:28:00,
2013-11-20 03:43:00,47.1,29.0,29.48,WNW,298,5.0,-999.0,49,-99.99,,,0.00,weatherlink.com 1.10,2013-11-20 10:43:00,
2013-11-20 03:58:00,46.0,29.0,29.47,NW,306,1.0,-999.0,52,-99.99,,,0.00,weatherlink.com 1.10,2013-11-20 10:58:00,
2013-11-20 04:13:00,45.2,28.0,29.48,NNW,336,0.0,-999.0,52,-99.99,,,0.00,weatherlink.com 1.10,2013-11-20 11:13:00,
2013-11-20 04:28:00,44.7,29.0,29.49,SSW,206,0.0,-999.0,54,-99.99,,,0.00,weatherlink.com 1.10,2013-11-20 11:28:00,
2013-11-20 04:44:00,44.6,28.0,29.51,SW,215,2.0,-999.0,53,-99.99,,,0.00,weatherlink.com 1.10,2013-11-20 11:44:00,
2013-11-20 04:59:00,46.0,28.0,29.50,West,277,6.0,-999.0,50,-99.99,,,0.00,weatherlink.com 1.10,2013-11-20 11:59:00,
2013-11-20 05:14:00,46.7,27.0,29.49,WNW,303,0.0,-999.0,47,-99.99,,,0.00,weatherlink.com 1.10,2013-11-20 12:14:00,
2013-11-20 05:29:00,44.6,28.0,29.51,SSE,149,3.0,-999.0,53,-99.99,,,0.00,weatherlink.com 1.10,2013-11-20 12:29:00,
2013-11-20 05:44:00,43.2,29.0,29.54,SE,143,5.0,-999.0,57,-99.99,,,0.00,weatherlink.com 1.10,2013-11-20 12:44:00,
2013-11-20 05:59:00,42.3,27.0,29.54,SSE,162,5.0,-999.0,56,-99.99,,,0.00,weatherlink.com 1.10,2013-11-20 12:59:00,
2013-11-20 06:14:00,43.1,27.0,29.55,NW,304,2.0,-999.0,54,-99.99,,,0.00,weatherlink.com 1.10,2013-11-20 13:14:00,
2013-11-20 06:29:00,44.5,27.0,29.55,NW,318,2.0,-999.0,51,-99.99,,,0.00,weatherlink.com 1.10,2013-11-20 13:29:00,
2013-11-20 06:44:00,43.6,27.0,29.54,SW,223,0.0,-999.0,53,-99.99,,,0.00,weatherlink.com 1.10,2013-11-20 13:44:00,
2013-11-20 06:59:00,39.7,27.0,29.57,SSE,149,8.0,-999.0,61,-99.99,,,0.00,weatherlink.com 1.10,2013-11-20 13:59:00,
2013-11-20 07:14:00,40.6,27.0,29.57,South,179,5.0,-999.0,58,-99.99,,,0.00,weatherlink.com 1.10,2013-11-20 14:14:00,
2013-11-20 07:29:00,41.5,27.0,29.56,SSE,155,5.0,-999.0,57,-99.99,,,0.00,weatherlink.com 1.10,2013-11-20 14:29:00,
2013-11-20 07:44:00,41.5,28.0,29.57,South,178,4.0,-999.0,58,-99.99,,,0.00,weatherlink.com 1.10,2013-11-20 14:44:00,
2013-11-20 07:59:00,43.6,28.0,29.57,South,181,0.0,-999.0,54,-99.99,,,0.00,weatherlink.com 1.10,2013-11-20 14:59:00,
2013-11-20 08:14:00,46.5,29.0,29.55,South,181,0.0,-999.0,50,-99.99,,,0.00,weatherlink.com 1.10,2013-11-20 15:14:00,
2013-11-20 08:29:00,47.6,30.0,29.54,South,181,0.0,-999.0,50,-99.99,,,0.00,weatherlink.com 1.10,2013-11-20 15:29:00,
2013-11-20 08:44:00,51.4,31.0,29.53,South,181,0.0,-999.0,45,-99.99,,,0.00,weatherlink.com 1.10,2013-11-20 15:44:00,
2013-11-20 08:59:00,52.7,30.0,29.52,SE,130,2.0,-999.0,42,-99.99,,,0.00,weatherlink.com 1.10,2013-11-20 15:59:00,
2013-11-20 09:14:00,53.5,31.0,29.52,East,86,2.0,-999.0,42,-99.99,,,0.00,weatherlink.com 1.10,2013-11-20 16:14:00,
2013-11-20 09:29:00,56.4,31.0,29.50,SE,129,5.0,-999.0,38,-99.99,,,0.00,weatherlink.com 1.10,2013-11-20 16:29:00,
2013-11-20 09:44:00,51.8,29.0,29.51,SE,138,3.0,-999.0,42,-99.99,,,0.00,weatherlink.com 1.10,2013-11-20 16:44:00,
2013-11-20 09:59:00,52.3,29.0,29.51,SSE,153,6.0,-999.0,41,-99.99,,,0.00,weatherlink.com 1.10,2013-11-20 16:59:00,
2013-11-20 10:14:00,55.2,29.0,29.51,East,93,2.0,-999.0,37,-99.99,,,0.00,weatherlink.com 1.10,2013-11-20 17:14:00,
2013-11-20 10:29:00,56.9,30.0,29.48,East,84,5.0,-999.0,36,-99.99,,,0.00,weatherlink.com 1.10,2013-11-20 17:29:00,
2013-11-20 10:44:00,56.9,29.0,29.47,SE,130,2.0,-999.0,34,-99.99,,,0.00,weatherlink.com 1.10,2013-11-20 17:44:00,
2013-11-20 10:59:00,59.0,29.0,29.46,SE,129,6.0,-999.0,32,-99.99,,,0.00,weatherlink.com 1.10,2013-11-20 17:59:00,
2013-11-20 11:14:00,59.7,30.0,29.45,NE,55,4.0,-999.0,32,-99.99,,,0.00,weatherlink.com 1.10,2013-11-20 18:14:00,
2013-11-20 11:29:00,60.0,28.0,29.45,East,95,2.0,-999.0,30,-99.99,,,0.00,weatherlink.com 1.10,2013-11-20 18:29:00,
2013-11-20 11:44:00,57.6,29.0,29.46,East,94,4.0,-999.0,33,-99.99,,,0.00,weatherlink.com 1.10,2013-11-20 18:44:00,
2013-11-20 11:59:00,58.4,28.0,29.46,SE,144,4.0,-999.0,31,-99.99,,,0.00,weatherlink.com 1.10,2013-11-20 18:59:00,
2013-11-20 12:14:00,57.6,28.0,29.45,SSE,163,10.0,-999.0,32,-99.99,,,0.00,weatherlink.com 1.10,2013-11-20 19:14:00,
2013-11-20 12:29:00,59.0,27.0,29.45,ESE,109,6.0,-999.0,30,-99.99,,,0.00,weatherlink.com 1.10,2013-11-20 19:29:00,
2013-11-20 12:44:00,59.0,27.0,29.44,ESE,113,0.0,-999.0,30,-99.99,,,0.00,weatherlink.com 1.10,2013-11-20 19:44:00,
2013-11-20 12:59:00,59.0,27.0,29.42,SE,144,1.0,-999.0,30,-99.99,,,0.00,weatherlink.com 1.10,2013-11-20 19:59:00,
2013-11-20 13:14:00,59.0,27.0,29.43,ENE,75,6.0,-999.0,30,-99.99,,,0.00,weatherlink.com 1.10,2013-11-20 20:14:00,
2013-11-20 13:29:00,59.3,28.0,29.41,NE,55,1.0,-999.0,30,-99.99,,,0.00,weatherlink.com 1.10,2013-11-20 20:29:00,
2013-11-20 13:44:00,58.3,27.0,29.41,ESE,118,0.0,-999.0,30,-99.99,,,0.00,weatherlink.com 1.10,2013-11-20 20:44:00,
2013-11-20 13:59:00,57.9,27.0,29.42,SE,130,5.0,-999.0,31,-99.99,,,0.00,weatherlink.com 1.10,2013-11-20 20:59:00,
2013-11-20 14:14:00,59.0,27.0,29.42,ESE,122,0.0,-999.0,30,-99.99,,,0.00,weatherlink.com 1.10,2013-11-20 21:14:00,
2013-11-20 14:29:00,59.0,27.0,29.41,SE,128,0.0,-999.0,30,-99.99,,,0.00,weatherlink.com 1.10,2013-11-20 21:29:00,
2013-11-20 14:44:00,58.6,27.0,29.42,SE,124,0.0,-999.0,30,-99.99,,,0.00,weatherlink.com 1.10,2013-11-20 21:44:00,
2013-11-20 14:59:00,59.1,28.0,29.43,ENE,57,2.0,-999.0,30,-99.99,,,0.00,weatherlink.com 1.10,2013-11-20 21:59:00,
2013-11-20 15:14:00,59.0,27.0,29.42,ENE,76,0.0,-999.0,30,-99.99,,,0.00,weatherlink.com 1.10,2013-11-20 22:14:00,
2013-11-20 15:29:00,58.5,27.0,29.43,ESE,117,0.0,-999.0,30,-99.99,,,0.00,weatherlink.com 1.10,2013-11-20 22:29:00,
2013-11-20 15:44:00,57.4,28.0,29.45,ESE,117,0.0,-999.0,32,-99.99,,,0.00,weatherlink.com 1.10,2013-11-20 22:44:00,
2013-11-20 15:59:00,57.4,27.0,29.46,ENE,76,0.0,-999.0,31,-99.99,,,0.00,weatherlink.com 1.10,2013-11-20 22:59:00,
2013-11-20 16:14:00,56.6,28.0,29.47,ENE,65,0.0,-999.0,33,-99.99,,,0.00,weatherlink.com 1.10,2013-11-20 23:14:00,
2013-11-20 16:29:00,55.7,28.0,29.48,ENE,64,0.0,-999.0,34,-99.99,,,0.00,weatherlink.com 1.10,2013-11-20 23:29:00,
2013-11-20 16:44:00,54.7,27.0,29.49,ENE,57,0.0,-999.0,35,-99.99,,,0.00,weatherlink.com 1.10,2013-11-20 23:44:00,
2013-11-20 16:59:00,53.7,27.0,29.50,ENE,57,0.0,-999.0,36,-99.99,,,0.00,weatherlink.com 1.10,2013-11-20 23:59:00,
2013-11-20 17:14:00,53.2,28.0,29.51,ENE,69,0.0,-999.0,38,-99.99,,,0.00,weatherlink.com 1.10,2013-11-21 00:14:00,
2013-11-20 17:29:00,51.9,28.0,29.51,NNW,337,0.0,-999.0,40,-99.99,,,0.00,weatherlink.com 1.10,2013-11-21 00:29:00,
2013-11-20 17:44:00,51.4,28.0,29.52,NNW,339,0.0,-999.0,41,-99.99,,,0.00,weatherlink.com 1.10,2013-11-21 00:44:00,
2013-11-20 17:59:00,50.8,28.0,29.54,NNW,339,0.0,-999.0,42,-99.99,,,0.00,weatherlink.com 1.10,2013-11-21 00:59:00,
2013-11-20 18:14:00,50.3,28.0,29.55,NNW,338,0.0,-999.0,42,-99.99,,,0.00,weatherlink.com 1.10,2013-11-21 01:14:00,
2013-11-20 18:29:00,50.2,28.0,29.55,North,355,0.0,-999.0,43,-99.99,,,0.00,weatherlink.com 1.10,2013-11-21 01:29:00,
2013-11-20 18:44:00,49.9,28.0,29.56,NNE,22,0.0,-999.0,43,-99.99,,,0.00,weatherlink.com 1.10,2013-11-21 01:44:00,
2013-11-20 18:59:00,49.4,28.0,29.56,North,9,0.0,-999.0,44,-99.99,,,0.00,weatherlink.com 1.10,2013-11-21 01:59:00,
2013-11-20 19:14:00,49.2,28.0,29.58,NNE,15,0.0,-999.0,44,-99.99,,,0.00,weatherlink.com 1.10,2013-11-21 02:14:00,
2013-11-20 19:29:00,48.9,28.0,29.59,NNW,338,1.0,-999.0,45,-99.99,,,0.00,weatherlink.com 1.10,2013-11-21 02:29:00,
2013-11-20 19:44:00,48.4,28.0,29.55,WNW,300,1.0,-999.0,46,-99.99,,,0.00,weatherlink.com 1.10,2013-11-21 02:44:00,
2013-11-20 19:59:00,48.1,29.0,29.57,WNW,296,6.0,-999.0,47,-99.99,,,0.00,weatherlink.com 1.10,2013-11-21 02:59:00,
2013-11-20 20:14:00,47.8,29.0,29.57,WNW,299,4.0,-999.0,48,-99.99,,,0.00,weatherlink.com 1.10,2013-11-21 03:14:00,
2013-11-20 20:30:00,48.1,29.0,29.57,WNW,300,5.0,-999.0,47,-99.99,,,0.00,weatherlink.com 1.10,2013-11-21 03:30:00,
2013-11-20 20:45:00,48.3,28.0,29.52,NW,305,4.0,-999.0,46,-99.99,,,0.00,weatherlink.com 1.10,2013-11-21 03:45:00,
2013-11-20 21:00:00,48.6,28.0,29.52,NW,315,4.0,-999.0,45,-99.99,,,0.00,weatherlink.com 1.10,2013-11-21 04:00:00,
2013-11-20 21:15:00,48.5,28.0,29.53,NNW,344,0.0,-999.0,46,-99.99,,,0.00,weatherlink.com 1.10,2013-11-21 04:15:00,
2013-11-20 21:30:00,48.5,29.0,29.53,North,5,2.0,-999.0,47,-99.99,,,0.00,weatherlink.com 1.10,2013-11-21 04:30:00,
2013-11-20 21:45:00,48.8,29.0,29.52,North,11,4.0,-999.0,46,-99.99,,,0.00,weatherlink.com 1.10,2013-11-21 04:45:00,
2013-11-20 22:00:00,48.4,28.0,29.54,NE,51,5.0,-999.0,46,-99.99,,,0.00,weatherlink.com 1.10,2013-11-21 05:00:00,
2013-11-20 22:15:00,48.2,28.0,29.55,North,350,7.0,-999.0,46,-99.99,,,0.00,weatherlink.com 1.10,2013-11-21 05:15:00,
2013-11-20 22:30:00,48.2,29.0,29.56,NNE,19,2.0,-999.0,47,-99.99,,,0.00,weatherlink.com 1.10,2013-11-21 05:30:00,
2013-11-20 22:45:00,43.1,27.0,29.56,NE,49,14.0,-999.0,53,-99.99,,,0.00,weatherlink.com 1.10,2013-11-21 05:45:00,
2013-11-20 23:00:00,35.5,25.0,29.67,NE,34,13.0,-999.0,66,-99.99,,,0.00,weatherlink.com 1.10,2013-11-21 06:00:00,
2013-11-20 23:15:00,33.3,25.0,29.71,NNW,337,12.0,-999.0,71,-99.99,,,0.00,weatherlink.com 1.10,2013-11-21 06:15:00,
2013-11-20 23:30:00,32.4,25.0,29.74,NNE,31,1.0,-999.0,75,-99.99,,,0.00,weatherlink.com 1.10,2013-11-21 06:30:00,
2013-11-20 23:45:00,31.2,26.0,29.77,NE,48,7.0,-999.0,80,-99.99,,,0.00,weatherlink.com 1.10,2013-11-21 06:45:00,